Mc Dougal, Arkansas
Current Conditions -  °F | °C
As of 4:35 PM on Monday 24 Nov 2014 (Local Time) from K4M9 Reporting Station
Clear Clear  
Wind Chill: 10°   Ceiling: Unl
Heat Index: 10°   Visibility: 10mi
Dew Point:   Wind: 9mph
Humidity: 50%   Direction: 260°W
Pressure: 29.89"   Gusts: NA
Location:  36.4376°N, 90.3867°W
Report Text: K4M9 242235Z AUTO 26008KT 10SM CLR 10/00 A2989 RMK AO2
Loading
Personal Weather Stations






























Interactive Weather Map New forecast layout! Learn more

10-Day Weather Forecast

Advertisements
Track Severe Weather on mobile